createdAt,value
2022-10-01T00:01:14.335Z,89.89
2022-10-01T00:04:01.075Z,89.93
2022-10-01T00:06:46.870Z,90.15
2022-10-01T00:09:32.531Z,89.96
2022-10-01T00:12:18.251Z,90.47
2022-10-01T00:15:06.169Z,90.45
2022-10-01T00:17:53.101Z,90.60
2022-10-01T00:20:43.435Z,90.98
2022-10-01T00:23:29.690Z,90.61
2022-10-01T00:26:18.030Z,90.84
2022-10-01T00:29:06.448Z,91.38
2022-10-01T00:31:52.188Z,91.01
2022-10-01T00:34:38.172Z,90.74
2022-10-01T00:37:23.602Z,91.19
2022-10-01T00:40:09.563Z,91.07
2022-10-01T00:42:55.184Z,91.29
2022-10-01T00:45:41.394Z,91.37
2022-10-01T00:48:29.530Z,91.38
2022-10-01T00:51:15.772Z,91.44
2022-10-01T00:54:08.437Z,91.32
2022-10-01T00:56:56.437Z,91.25
2022-10-01T00:59:42.032Z,91.72
2022-10-01T01:02:27.717Z,91.92
2022-10-01T01:05:14.098Z,91.73
2022-10-01T01:08:02.945Z,91.70
2022-10-01T01:11:23.155Z,91.57
2022-10-01T01:14:29.607Z,91.78
2022-10-01T01:17:50.928Z,91.97
2022-10-01T01:20:45.607Z,92.01
2022-10-01T01:23:37.123Z,91.98
2022-10-01T01:26:41.129Z,92.17
2022-10-01T01:29:34.990Z,92.41
2022-10-01T01:32:27.207Z,92.33
2022-10-01T01:35:18.922Z,92.77
2022-10-01T01:38:11.444Z,92.46
2022-10-01T01:40:59.332Z,92.70
2022-10-01T01:43:47.224Z,92.81
2022-10-01T01:46:36.550Z,92.69
2022-10-01T01:49:23.526Z,93.13
2022-10-01T01:52:15.080Z,93.05
2022-10-01T01:55:05.245Z,93.00
2022-10-01T01:57:51.435Z,93.43
2022-10-01T02:00:37.591Z,93.54
2022-10-01T02:03:26.060Z,93.82
2022-10-01T02:06:26.188Z,93.82
2022-10-01T02:09:24.329Z,93.55
2022-10-01T02:12:35.611Z,93.55
2022-10-01T02:15:42.288Z,93.70
2022-10-01T02:19:04.792Z,94.02
2022-10-01T02:22:12.919Z,94.30
2022-10-01T02:25:00.249Z,94.53
2022-10-01T02:27:55.821Z,94.40
2022-10-01T02:30:42.453Z,94.58
2022-10-01T02:33:31.464Z,94.72
2022-10-01T02:36:18.709Z,94.41
2022-10-01T02:39:06.689Z,94.48
2022-10-01T02:41:54.172Z,94.70
2022-10-01T02:44:42.586Z,94.84
2022-10-01T02:47:40.807Z,95.12
2022-10-01T02:50:32.339Z,94.83
2022-10-01T02:53:32.526Z,95.41
2022-10-01T02:56:46.070Z,95.42
2022-10-01T02:59:34.918Z,95.38
2022-10-01T03:02:20.940Z,95.74
2022-10-01T03:05:08.071Z,95.95
2022-10-01T03:07:53.845Z,95.86
2022-10-01T03:10:42.416Z,95.88
2022-10-01T03:13:31.837Z,95.80
2022-10-01T03:16:17.648Z,96.15
2022-10-01T03:19:03.668Z,95.70
2022-10-01T03:21:49.380Z,95.79
2022-10-01T03:24:35.145Z,95.95
2022-10-01T03:27:21.808Z,96.00
2022-10-01T03:30:08.296Z,95.91
2022-10-01T03:32:54.227Z,96.05
2022-10-01T03:35:39.778Z,95.90
2022-10-01T03:38:25.674Z,95.99
2022-10-01T03:41:11.103Z,96.08
2022-10-01T03:44:00.373Z,96.55
2022-10-01T03:46:46.428Z,96.41
2022-10-01T03:49:32.267Z,96.46
2022-10-01T03:52:18.055Z,96.27
2022-10-01T03:55:04.069Z,96.67
2022-10-01T03:57:50.210Z,96.61
2022-10-01T04:00:36.303Z,96.71
2022-10-01T04:03:22.228Z,96.77
2022-10-01T04:06:07.950Z,96.97
2022-10-01T04:08:54.122Z,96.90
2022-10-01T04:11:40.221Z,96.90
2022-10-01T04:14:26.095Z,96.85
2022-10-01T04:17:11.837Z,96.83
2022-10-01T04:19:57.789Z,96.92
2022-10-01T04:22:44.573Z,97.01
2022-10-01T04:25:31.115Z,97.68
2022-10-01T04:28:17.522Z,97.02
2022-10-01T04:31:21.670Z,97.17
2022-10-01T04:34:07.150Z,97.37
2022-10-01T04:36:52.619Z,97.69
2022-10-01T04:39:38.233Z,97.10
2022-10-01T04:42:23.851Z,97.34
2022-10-01T04:45:10.626Z,97.51
2022-10-01T04:47:56.869Z,97.54
2022-10-01T04:50:42.739Z,97.88
2022-10-01T04:53:28.887Z,97.78
2022-10-01T04:56:14.793Z,97.83
2022-10-01T04:59:00.548Z,97.84
2022-10-01T05:01:46.445Z,98.11
2022-10-01T05:04:32.417Z,98.15
2022-10-01T05:07:19.432Z,98.18
2022-10-01T05:10:06.102Z,98.46
2022-10-01T05:12:52.232Z,98.34
2022-10-01T05:15:37.720Z,98.17
2022-10-01T05:18:23.502Z,98.17
2022-10-01T05:21:11.528Z,98.59
2022-10-01T05:23:57.391Z,98.78
2022-10-01T05:26:42.964Z,98.72
2022-10-01T05:29:29.183Z,98.92
2022-10-01T05:32:14.857Z,99.08
2022-10-01T05:35:00.741Z,98.89
2022-10-01T05:37:55.781Z,98.82
2022-10-01T05:40:45.289Z,99.15
2022-10-01T05:43:31.363Z,99.09
2022-10-01T05:46:17.702Z,99.12
2022-10-01T05:49:03.748Z,98.91
2022-10-01T05:51:49.754Z,98.82
2022-10-01T05:54:35.134Z,99.03
2022-10-01T05:57:21.703Z,98.68
2022-10-01T06:00:08.272Z,98.53
2022-10-01T06:02:59.555Z,98.30
2022-10-01T06:05:45.034Z,98.31
2022-10-01T06:08:32.223Z,98.83
2022-10-01T06:11:18.818Z,98.46
2022-10-01T06:14:05.086Z,98.54
2022-10-01T06:16:54.728Z,98.67
2022-10-01T06:19:40.402Z,98.42
2022-10-01T06:22:26.393Z,98.61
2022-10-01T06:25:15.011Z,98.19
2022-10-01T06:28:02.175Z,98.21
2022-10-01T06:30:49.740Z,98.08
2022-10-01T06:33:35.392Z,97.93
2022-10-01T06:36:21.057Z,98.04
2022-10-01T06:39:06.252Z,97.55
2022-10-01T06:41:52.363Z,98.03
2022-10-01T06:44:39.265Z,97.64
2022-10-01T06:47:24.647Z,97.83
2022-10-01T06:50:10.692Z,97.49
2022-10-01T06:52:57.293Z,97.55
2022-10-01T06:55:43.641Z,98.01
2022-10-01T06:58:29.342Z,97.31
2022-10-01T07:01:19.672Z,97.06
2022-10-01T07:04:05.896Z,96.72
2022-10-01T07:06:52.170Z,96.22
2022-10-01T07:09:38.120Z,95.91
2022-10-01T07:12:24.015Z,95.88
2022-10-01T07:15:10.231Z,95.41
2022-10-01T07:17:55.966Z,94.98
2022-10-01T07:20:41.870Z,94.79
2022-10-01T07:23:27.144Z,94.72
2022-10-01T07:26:12.920Z,93.96
2022-10-01T07:28:58.469Z,93.29
2022-10-01T07:31:44.131Z,92.88
2022-10-01T07:34:32.742Z,92.43
2022-10-01T07:37:18.760Z,92.24
2022-10-01T07:40:07.530Z,91.92
2022-10-01T07:42:54.735Z,91.47
2022-10-01T07:45:40.320Z,91.17
2022-10-01T07:48:27.460Z,90.72
2022-10-01T07:51:13.203Z,90.21
2022-10-01T07:53:59.245Z,89.98
2022-10-01T07:56:44.884Z,89.23
2022-10-01T07:59:31.406Z,89.44
2022-10-01T08:02:19.058Z,88.96
2022-10-01T08:05:17.463Z,88.51
2022-10-01T08:08:07.661Z,88.31
2022-10-01T08:10:53.729Z,88.05
2022-10-01T08:13:40.334Z,87.81
2022-10-01T08:16:29.236Z,87.48
2022-10-01T08:19:15.425Z,86.36
2022-10-01T08:22:00.998Z,86.71
2022-10-01T08:24:46.453Z,86.82
2022-10-01T08:27:32.560Z,85.99
2022-10-01T08:30:18.170Z,85.92
2022-10-01T08:33:04.073Z,85.96
2022-10-01T08:35:49.523Z,85.53
2022-10-01T08:38:36.687Z,85.62
2022-10-01T08:41:42.457Z,85.09
2022-10-01T08:44:33.156Z,85.18
2022-10-01T08:47:26.233Z,84.36
2022-10-01T08:50:18.001Z,83.69
2022-10-01T08:53:09.409Z,83.71
2022-10-01T08:55:55.754Z,83.59
2022-10-01T08:58:43.957Z,82.97
2022-10-01T09:01:30.999Z,82.85
2022-10-01T09:04:17.082Z,82.14
2022-10-01T09:07:29.702Z,82.54
2022-10-01T09:10:30.292Z,82.39
2022-10-01T09:13:27.832Z,82.52
2022-10-01T09:16:35.401Z,82.37
2022-10-01T09:19:33.737Z,82.35
2022-10-01T09:22:38.023Z,82.18
2022-10-01T09:25:27.309Z,82.45
2022-10-01T09:28:24.609Z,82.31
2022-10-01T09:31:19.901Z,82.04
2022-10-01T09:34:14.819Z,82.03
2022-10-01T09:37:14.620Z,82.23
2022-10-01T09:40:19.308Z,82.24
2022-10-01T09:43:08.257Z,81.82
2022-10-01T09:45:54.345Z,81.44
2022-10-01T09:48:48.726Z,81.46
2022-10-01T09:51:40.193Z,80.89
2022-10-01T09:54:35.885Z,79.74
2022-10-01T09:57:26.125Z,80.17
2022-10-01T10:00:17.411Z,80.36
2022-10-01T10:03:03.135Z,80.09
2022-10-01T10:05:49.583Z,79.51
2022-10-01T10:08:36.927Z,79.29
2022-10-01T10:11:25.674Z,79.17
2022-10-01T10:14:17.629Z,78.76
2022-10-01T10:17:16.229Z,78.67
2022-10-01T10:20:01.810Z,78.59
2022-10-01T10:22:47.364Z,78.69
2022-10-01T10:25:32.916Z,77.84
2022-10-01T10:28:23.963Z,77.90
2022-10-01T10:31:27.883Z,77.45
2022-10-01T10:34:19.168Z,77.56
2022-10-01T10:37:12.231Z,76.61
2022-10-01T10:39:58.283Z,77.07
2022-10-01T10:42:48.936Z,76.47
2022-10-01T10:45:38.801Z,76.81
2022-10-01T10:48:29.109Z,76.63
2022-10-01T10:51:14.624Z,76.66
2022-10-01T10:54:00.770Z,76.45
2022-10-01T10:57:04.297Z,76.37
2022-10-01T10:59:58.301Z,75.95
2022-10-01T11:02:56.857Z,75.79
2022-10-01T11:05:43.531Z,75.80
2022-10-01T11:08:30.094Z,75.11
2022-10-01T11:11:34.348Z,75.68
2022-10-01T11:14:51.124Z,75.10
2022-10-01T11:17:52.159Z,75.42
2022-10-01T11:21:04.909Z,75.27
2022-10-01T11:23:54.992Z,75.38
2022-10-01T11:27:12.507Z,75.18
2022-10-01T11:30:21.003Z,75.32
2022-10-01T11:33:16.671Z,74.52
2022-10-01T11:36:03.001Z,75.00
2022-10-01T11:39:00.476Z,74.86
2022-10-01T11:41:49.159Z,75.12
2022-10-01T11:44:40.003Z,75.05
2022-10-01T11:47:39.275Z,75.67
2022-10-01T11:50:39.448Z,75.23
2022-10-01T11:53:30.953Z,75.05
2022-10-01T11:56:43.447Z,75.03
2022-10-01T11:59:41.581Z,74.78
2022-10-01T12:02:35.088Z,74.67
2022-10-01T12:05:23.809Z,74.77
2022-10-01T12:08:19.320Z,74.26
2022-10-01T12:11:23.799Z,74.69
2022-10-01T12:14:17.874Z,74.45
2022-10-01T12:17:12.289Z,74.42
2022-10-01T12:20:00.190Z,74.39
2022-10-01T12:22:46.271Z,74.33
2022-10-01T12:25:57.476Z,74.72
2022-10-01T12:28:52.004Z,74.24
2022-10-01T12:31:51.306Z,74.67
2022-10-01T12:35:06.636Z,74.77
2022-10-01T12:37:58.471Z,74.42
2022-10-01T12:40:54.649Z,74.55
2022-10-01T12:43:50.526Z,74.96
2022-10-01T12:47:07.061Z,74.26
2022-10-01T12:50:04.436Z,74.77
2022-10-01T12:52:57.067Z,74.94
2022-10-01T12:56:01.510Z,74.91
2022-10-01T12:59:06.386Z,75.08
2022-10-01T13:02:31.166Z,75.12
2022-10-01T13:05:35.123Z,74.95
2022-10-01T13:08:29.687Z,75.13
2022-10-01T13:11:53.039Z,75.15
2022-10-01T13:14:44.315Z,75.18
2022-10-01T13:17:41.762Z,75.30
2022-10-01T13:20:35.785Z,75.47
2022-10-01T13:23:23.540Z,75.56
2022-10-01T13:26:40.441Z,75.63
2022-10-01T13:29:53.239Z,75.95
2022-10-01T13:32:52.778Z,75.67
2022-10-01T13:35:41.249Z,76.10
2022-10-01T13:38:30.483Z,76.01
2022-10-01T13:41:42.426Z,76.37
2022-10-01T13:44:33.882Z,76.45
2022-10-01T13:47:19.732Z,76.37
2022-10-01T13:50:08.027Z,76.94
2022-10-01T13:53:15.358Z,76.88
2022-10-01T13:56:01.867Z,77.80
2022-10-01T13:58:47.279Z,77.59
2022-10-01T14:01:42.083Z,77.53
2022-10-01T14:04:48.184Z,77.78
2022-10-01T14:07:36.158Z,78.23
2022-10-01T14:10:23.205Z,78.39
2022-10-01T14:13:28.872Z,78.24
2022-10-01T14:16:15.247Z,78.28
2022-10-01T14:19:01.783Z,78.26
2022-10-01T14:21:56.777Z,78.56
2022-10-01T14:24:54.778Z,78.44
2022-10-01T14:27:49.298Z,78.61
2022-10-01T14:30:54.665Z,78.22
2022-10-01T14:33:49.174Z,78.65
2022-10-01T14:36:47.554Z,77.93
2022-10-01T14:39:33.286Z,77.43
2022-10-01T14:42:18.961Z,77.40
2022-10-01T14:45:16.033Z,77.16
2022-10-01T14:48:04.229Z,77.26
2022-10-01T14:50:52.233Z,77.37
2022-10-01T14:53:38.566Z,77.29
2022-10-01T14:56:24.140Z,77.39
2022-10-01T14:59:18.241Z,77.21
2022-10-01T15:02:17.405Z,77.22
2022-10-01T15:05:35.090Z,77.54
2022-10-01T15:08:23.851Z,77.95
2022-10-01T15:11:29.900Z,77.06
2022-10-01T15:14:21.773Z,77.45
2022-10-01T15:17:10.489Z,77.87
2022-10-01T15:19:56.666Z,78.29
2022-10-01T15:22:45.189Z,78.84
2022-10-01T15:25:31.441Z,79.31
2022-10-01T15:28:27.835Z,79.66
2022-10-01T15:31:13.834Z,80.25
2022-10-01T15:34:04.442Z,80.95
2022-10-01T15:36:50.578Z,80.89
2022-10-01T15:39:38.816Z,81.76
2022-10-01T15:42:28.237Z,82.00
2022-10-01T15:45:25.780Z,82.06
2022-10-01T15:48:29.209Z,82.77
2022-10-01T15:51:19.548Z,83.40
2022-10-01T15:54:08.571Z,83.65
2022-10-01T15:56:54.237Z,83.68
2022-10-01T15:59:40.105Z,83.58
2022-10-01T16:02:28.177Z,84.37
2022-10-01T16:05:17.584Z,84.60
2022-10-01T16:08:03.505Z,85.09
2022-10-01T16:11:09.058Z,85.20
2022-10-01T16:14:17.577Z,85.59
2022-10-01T16:17:27.978Z,85.65
2022-10-01T16:20:14.106Z,86.00
2022-10-01T16:23:36.622Z,86.15
2022-10-01T16:26:34.031Z,86.38
2022-10-01T16:29:23.021Z,86.92
2022-10-01T16:32:13.941Z,86.87
2022-10-01T16:35:21.181Z,86.88
2022-10-01T16:38:08.445Z,87.17
2022-10-01T16:40:54.288Z,87.47
2022-10-01T16:43:40.106Z,87.61
2022-10-01T16:46:25.548Z,87.84
2022-10-01T16:49:14.076Z,88.19
2022-10-01T16:51:59.933Z,88.25
2022-10-01T16:54:47.358Z,88.26
2022-10-01T16:57:32.839Z,88.77
2022-10-01T17:00:20.912Z,88.51
2022-10-01T17:03:10.106Z,89.07
2022-10-01T17:05:55.954Z,89.19
2022-10-01T17:08:41.949Z,89.36
2022-10-01T17:11:29.895Z,89.70
2022-10-01T17:14:21.112Z,89.47
2022-10-01T17:17:07.035Z,90.14
2022-10-01T17:19:52.753Z,90.45
2022-10-01T17:22:39.522Z,90.33
2022-10-01T17:25:31.058Z,90.35
2022-10-01T17:28:20.266Z,90.47
2022-10-01T17:31:07.562Z,90.95
2022-10-01T17:33:53.805Z,90.94
2022-10-01T17:36:39.940Z,91.10
2022-10-01T17:39:26.581Z,91.30
2022-10-01T17:42:15.050Z,91.44
2022-10-01T17:45:02.937Z,91.54
2022-10-01T17:47:50.406Z,91.68
2022-10-01T17:50:44.194Z,91.87
2022-10-01T17:53:36.164Z,91.84
2022-10-01T17:56:28.632Z,92.10
2022-10-01T17:59:16.171Z,91.97
2022-10-01T18:02:40.516Z,91.95
2022-10-01T18:05:25.040Z,91.95
2022-10-01T18:08:11.242Z,92.07
2022-10-01T18:11:09.445Z,91.82
2022-10-01T18:13:58.719Z,91.61
2022-10-01T18:16:45.177Z,91.87
2022-10-01T18:22:41.626Z,91.81
2022-10-01T18:25:28.873Z,91.85
2022-10-01T18:28:15.134Z,91.94
2022-10-01T18:31:15.645Z,92.13
2022-10-01T18:34:03.422Z,92.01
2022-10-01T18:37:06.860Z,92.17
2022-10-01T18:40:16.541Z,92.29
2022-10-01T18:43:14.292Z,92.54
2022-10-01T18:46:18.243Z,92.49
2022-10-01T18:49:22.745Z,92.92
2022-10-01T18:52:12.241Z,93.03
2022-10-01T18:55:25.768Z,92.98
2022-10-01T18:58:23.666Z,93.50
2022-10-01T19:01:15.357Z,93.86
2022-10-01T19:04:12.378Z,93.51
2022-10-01T19:07:16.344Z,94.07
2022-10-01T19:10:19.599Z,94.63
2022-10-01T19:13:26.823Z,94.73
2022-10-01T19:16:31.074Z,94.52
2022-10-01T19:19:28.822Z,94.69
2022-10-01T19:22:24.533Z,94.61
2022-10-01T19:25:45.501Z,94.75
2022-10-01T19:29:04.314Z,94.98
2022-10-01T19:32:00.334Z,94.90
2022-10-01T19:34:50.092Z,95.18
2022-10-01T19:37:43.537Z,95.06
2022-10-01T19:40:35.050Z,95.20
2022-10-01T19:43:38.508Z,95.51
2022-10-01T19:46:36.642Z,95.46
2022-10-01T19:49:27.695Z,95.65
2022-10-01T19:52:18.239Z,95.96
2022-10-01T19:55:13.251Z,95.82
2022-10-01T19:57:59.638Z,95.76
2022-10-01T20:00:53.008Z,96.03
2022-10-01T20:03:57.781Z,96.12
2022-10-01T20:06:46.856Z,96.48
2022-10-01T20:09:45.246Z,96.26
2022-10-01T20:12:41.715Z,96.32
2022-10-01T20:15:45.745Z,96.77
2022-10-01T20:18:51.728Z,97.03
2022-10-01T20:22:02.729Z,97.14
2022-10-01T20:25:00.189Z,96.91
2022-10-01T20:28:02.933Z,97.16
2022-10-01T20:31:10.941Z,97.27
2022-10-01T20:34:04.941Z,97.74
2022-10-01T20:37:12.673Z,97.36
2022-10-01T20:40:17.919Z,97.95
2022-10-01T20:43:34.599Z,97.92
2022-10-01T20:46:33.873Z,97.84
2022-10-01T20:49:41.809Z,97.88
2022-10-01T20:52:36.648Z,98.06
2022-10-01T20:55:29.158Z,97.78
2022-10-01T20:58:23.578Z,97.65
2022-10-01T21:01:30.485Z,97.86
2022-10-01T21:04:20.521Z,97.72
2022-10-01T21:07:28.399Z,97.85
2022-10-01T21:10:22.125Z,97.80
2022-10-01T21:13:17.372Z,98.07
2022-10-01T21:16:12.943Z,97.94
2022-10-01T21:18:58.457Z,97.74
2022-10-01T21:21:55.306Z,97.96
2022-10-01T21:25:09.375Z,98.16
2022-10-01T21:28:13.060Z,98.04
2022-10-01T21:31:08.327Z,98.11
2022-10-01T21:34:07.899Z,98.21
2022-10-01T21:37:12.492Z,98.33
2022-10-01T21:40:01.511Z,98.38
2022-10-01T21:43:02.841Z,98.19
2022-10-01T21:45:59.612Z,98.24
2022-10-01T21:48:53.912Z,98.57
2022-10-01T21:52:00.032Z,98.29
2022-10-01T21:55:15.364Z,98.45
2022-10-01T21:58:16.570Z,98.47
2022-10-01T22:01:15.888Z,98.32
2022-10-01T22:04:27.020Z,98.67
2022-10-01T22:07:51.429Z,98.88
2022-10-01T22:10:44.592Z,98.93
2022-10-01T22:13:33.953Z,98.63
2022-10-01T22:16:22.038Z,98.73
2022-10-01T22:19:11.984Z,98.84
2022-10-01T22:22:09.516Z,99.02
2022-10-01T22:24:58.789Z,98.95
2022-10-01T22:27:51.753Z,99.38
2022-10-01T22:30:39.343Z,98.95
2022-10-01T22:33:33.903Z,99.11
2022-10-01T22:36:47.370Z,99.32
2022-10-01T22:39:39.874Z,99.18
2022-10-01T22:42:30.511Z,99.37
2022-10-01T22:45:17.192Z,99.36
2022-10-01T22:48:30.796Z,99.31
2022-10-01T22:51:35.495Z,99.29
2022-10-01T22:54:30.173Z,99.17
2022-10-01T22:57:40.190Z,99.23
2022-10-01T23:00:26.279Z,99.36
2022-10-01T23:03:24.746Z,99.36
2022-10-01T23:06:19.625Z,99.20
2022-10-01T23:09:33.766Z,99.04
2022-10-01T23:12:45.241Z,99.07
2022-10-01T23:15:56.359Z,99.36
2022-10-01T23:19:10.667Z,99.43
2022-10-01T23:22:23.259Z,99.55
2022-10-01T23:25:18.803Z,99.69
2022-10-01T23:28:15.118Z,99.76
2022-10-01T23:31:17.728Z,99.60
2022-10-01T23:34:16.616Z,99.64
2022-10-01T23:37:30.468Z,99.33
2022-10-01T23:40:18.481Z,99.64
2022-10-01T23:43:11.824Z,99.70
2022-10-01T23:46:05.327Z,99.60
2022-10-01T23:48:54.078Z,99.67
2022-10-01T23:51:55.792Z,99.74
2022-10-01T23:54:49.033Z,99.76
2022-10-01T23:57:38.021Z,99.54
